Time,TemperatureF,DewpointF,PressureIn,WindDirection,WindDirectionDegrees,WindSpeedMPH,WindSpeedGustMPH,Humidity,HourlyPrecipIn,Conditions,Clouds,dailyrainin,SoftwareType,DateUTC
2013-07-22 00:04:00,72.9,68.1,29.82,ENE,67,0.0,-999.0,85,-99.99,,,0.00,Acu-Link.com,2013-07-22 04:04:00,
2013-07-22 00:19:00,72.7,68.3,29.82,ENE,67,0.0,-999.0,86,-99.99,,,0.00,Acu-Link.com,2013-07-22 04:19:00,
2013-07-22 00:35:00,73.0,68.2,29.82,SE,135,0.0,-999.0,85,-99.99,,,0.00,Acu-Link.com,2013-07-22 04:35:00,
2013-07-22 00:50:00,73.2,68.4,29.82,SE,135,0.0,-999.0,85,-99.99,,,0.00,Acu-Link.com,2013-07-22 04:50:00,
2013-07-22 01:05:00,73.4,68.6,29.82,ESE,112,0.0,-999.0,85,-99.99,,,0.00,Acu-Link.com,2013-07-22 05:05:00,
2013-07-22 01:20:00,73.6,68.8,29.81,ESE,112,0.0,-999.0,85,-99.99,,,0.00,Acu-Link.com,2013-07-22 05:20:00,
2013-07-22 01:35:00,73.9,69.1,29.81,SE,135,0.0,-999.0,85,-99.99,,,0.00,Acu-Link.com,2013-07-22 05:35:00,
2013-07-22 01:50:00,70.5,66.8,29.83,SSE,157,6.8,-999.0,88,-99.99,,,0.01,Acu-Link.com,2013-07-22 05:50:00,
2013-07-22 02:05:00,68.9,66.2,29.83,South,180,1.7,-999.0,91,-99.99,,,0.45,Acu-Link.com,2013-07-22 06:05:00,
2013-07-22 02:20:00,68.7,66.3,29.82,NW,315,0.0,-999.0,92,-99.99,,,0.49,Acu-Link.com,2013-07-22 06:20:00,
2013-07-22 02:35:00,68.7,66.3,29.80,WNW,292,1.7,-999.0,92,-99.99,,,0.50,Acu-Link.com,2013-07-22 06:35:00,
2013-07-22 02:51:00,68.7,66.6,29.79,WNW,292,1.1,-999.0,93,-99.99,,,0.50,Acu-Link.com,2013-07-22 06:51:00,
2013-07-22 03:06:00,68.5,66.4,29.78,South,180,0.0,-999.0,93,-99.99,,,0.50,Acu-Link.com,2013-07-22 07:06:00,
2013-07-22 03:21:00,68.5,66.7,29.78,South,180,0.0,-999.0,94,-99.99,,,0.50,Acu-Link.com,2013-07-22 07:21:00,
2013-07-22 03:36:00,68.4,66.6,29.79,SSE,157,0.0,-999.0,94,-99.99,,,0.50,Acu-Link.com,2013-07-22 07:36:00,
2013-07-22 03:51:00,68.4,66.6,29.79,SE,135,0.0,-999.0,94,-99.99,,,0.50,Acu-Link.com,2013-07-22 07:51:00,
2013-07-22 04:08:00,68.4,66.6,29.78,ESE,112,0.0,-999.0,94,-99.99,,,0.50,Acu-Link.com,2013-07-22 08:08:00,
2013-07-22 04:23:00,68.4,66.6,29.78,ESE,112,0.0,-999.0,94,-99.99,,,0.50,Acu-Link.com,2013-07-22 08:23:00,
2013-07-22 04:38:00,68.2,66.4,29.78,East,90,0.0,-999.0,94,-99.99,,,0.50,Acu-Link.com,2013-07-22 08:38:00,
2013-07-22 04:53:00,68.2,66.4,29.78,East,90,0.0,-999.0,94,-99.99,,,0.50,Acu-Link.com,2013-07-22 08:53:00,
2013-07-22 05:08:00,68.2,66.7,29.78,NNW,337,0.0,-999.0,95,-99.99,,,0.50,Acu-Link.com,2013-07-22 09:08:00,
2013-07-22 05:23:00,68.4,66.9,29.78,ENE,67,2.7,-999.0,95,-99.99,,,0.50,Acu-Link.com,2013-07-22 09:23:00,
2013-07-22 05:39:00,68.4,66.9,29.78,ENE,67,2.2,-999.0,95,-99.99,,,0.50,Acu-Link.com,2013-07-22 09:39:00,
2013-07-22 05:54:00,68.2,66.7,29.79,East,90,0.0,-999.0,95,-99.99,,,0.50,Acu-Link.com,2013-07-22 09:54:00,
2013-07-22 06:09:00,68.2,66.7,29.79,East,90,0.0,-999.0,95,-99.99,,,0.50,Acu-Link.com,2013-07-22 10:09:00,
2013-07-22 06:24:00,68.0,66.5,29.79,ESE,112,0.0,-999.0,95,-99.99,,,0.51,Acu-Link.com,2013-07-22 10:24:00,
2013-07-22 06:39:00,68.2,66.7,29.79,ESE,112,0.0,-999.0,95,-99.99,,,0.51,Acu-Link.com,2013-07-22 10:39:00,
2013-07-22 06:54:00,68.4,66.9,29.78,ESE,112,1.7,-999.0,95,-99.99,,,0.51,Acu-Link.com,2013-07-22 10:54:00,
2013-07-22 07:10:00,68.4,66.9,29.77,SSE,157,1.7,-999.0,95,-99.99,,,0.51,Acu-Link.com,2013-07-22 11:10:00,
2013-07-22 07:25:00,68.7,67.2,29.78,East,90,0.0,-999.0,95,-99.99,,,0.51,Acu-Link.com,2013-07-22 11:25:00,
2013-07-22 07:40:00,68.9,67.4,29.78,ESE,112,0.0,-999.0,95,-99.99,,,0.51,Acu-Link.com,2013-07-22 11:40:00,
2013-07-22 07:55:00,69.3,67.8,29.78,ESE,112,0.0,-999.0,95,-99.99,,,0.51,Acu-Link.com,2013-07-22 11:55:00,
2013-07-22 08:10:00,69.3,67.8,29.78,East,90,2.7,-999.0,95,-99.99,,,0.51,Acu-Link.com,2013-07-22 12:10:00,
2013-07-22 08:25:00,69.3,67.8,29.78,ENE,67,1.7,-999.0,95,-99.99,,,0.51,Acu-Link.com,2013-07-22 12:25:00,
2013-07-22 08:40:00,69.4,67.6,29.78,East,90,0.0,-999.0,94,-99.99,,,0.52,Acu-Link.com,2013-07-22 12:40:00,
2013-07-22 08:55:00,70.0,67.9,29.77,East,90,3.2,-999.0,93,-99.99,,,0.52,Acu-Link.com,2013-07-22 12:55:00,
2013-07-22 09:10:00,70.2,68.1,29.78,ESE,112,1.1,-999.0,93,-99.99,,,0.52,Acu-Link.com,2013-07-22 13:10:00,
2013-07-22 09:26:00,70.2,68.1,29.77,ESE,112,1.1,-999.0,93,-99.99,,,0.53,Acu-Link.com,2013-07-22 13:26:00,
2013-07-22 09:41:00,70.0,67.6,29.77,East,90,3.2,-999.0,92,-99.99,,,0.53,Acu-Link.com,2013-07-22 13:41:00,
2013-07-22 09:56:00,70.2,67.8,29.78,East,90,2.7,-999.0,92,-99.99,,,0.54,Acu-Link.com,2013-07-22 13:56:00,
2013-07-22 10:11:00,70.3,67.9,29.77,East,90,2.2,-999.0,92,-99.99,,,0.54,Acu-Link.com,2013-07-22 14:11:00,
2013-07-22 10:26:00,70.5,67.7,29.77,ENE,67,1.1,-999.0,91,-99.99,,,0.55,Acu-Link.com,2013-07-22 14:26:00,
2013-07-22 10:41:00,70.7,68.3,29.76,East,90,2.7,-999.0,92,-99.99,,,0.56,Acu-Link.com,2013-07-22 14:41:00,
2013-07-22 10:56:00,71.6,68.8,29.76,ESE,112,2.2,-999.0,91,-99.99,,,0.57,Acu-Link.com,2013-07-22 14:56:00,
2013-07-22 11:11:00,71.8,68.7,29.75,ESE,112,2.2,-999.0,90,-99.99,,,0.57,Acu-Link.com,2013-07-22 15:11:00,
2013-07-22 11:26:00,74.1,70.0,29.75,East,90,2.2,-999.0,87,-99.99,,,0.57,Acu-Link.com,2013-07-22 15:26:00,
2013-07-22 11:41:00,74.3,69.5,29.76,SSW,202,1.7,-999.0,85,-99.99,,,0.57,Acu-Link.com,2013-07-22 15:41:00,
2013-07-22 11:57:00,75.4,70.9,29.75,SSE,157,0.0,-999.0,86,-99.99,,,0.57,Acu-Link.com,2013-07-22 15:57:00,
2013-07-22 12:12:00,77.0,70.7,29.76,West,270,0.0,-999.0,81,-99.99,,,0.57,Acu-Link.com,2013-07-22 16:12:00,
2013-07-22 12:27:00,78.8,71.0,29.75,East,90,2.2,-999.0,77,-99.99,,,0.57,Acu-Link.com,2013-07-22 16:27:00,
2013-07-22 12:42:00,77.2,69.0,29.75,WSW,247,1.7,-999.0,76,-99.99,,,0.57,Acu-Link.com,2013-07-22 16:42:00,
2013-07-22 12:57:00,79.5,71.3,29.75,ESE,112,0.0,-999.0,76,-99.99,,,0.57,Acu-Link.com,2013-07-22 16:57:00,
2013-07-22 13:12:00,77.9,68.9,29.75,ENE,67,1.1,-999.0,74,-99.99,,,0.57,Acu-Link.com,2013-07-22 17:12:00,
2013-07-22 13:27:00,78.6,69.6,29.74,NE,45,1.1,-999.0,74,-99.99,,,0.57,Acu-Link.com,2013-07-22 17:27:00,
2013-07-22 13:42:00,80.6,70.3,29.73,ESE,112,2.2,-999.0,71,-99.99,,,0.57,Acu-Link.com,2013-07-22 17:42:00,
2013-07-22 13:57:00,82.0,70.8,29.74,ESE,112,1.1,-999.0,69,-99.99,,,0.57,Acu-Link.com,2013-07-22 17:57:00,
2013-07-22 14:28:00,83.8,69.4,29.73,WSW,247,1.7,-999.0,62,-99.99,,,0.57,Acu-Link.com,2013-07-22 18:28:00,
2013-07-22 14:43:00,86.5,69.9,29.73,NNW,337,2.2,-999.0,58,-99.99,,,0.57,Acu-Link.com,2013-07-22 18:43:00,
2013-07-22 14:58:00,85.1,69.1,29.73,ESE,112,1.7,-999.0,59,-99.99,,,0.57,Acu-Link.com,2013-07-22 18:58:00,
2013-07-22 15:13:00,85.5,69.0,29.74,SE,135,1.1,-999.0,58,-99.99,,,0.57,Acu-Link.com,2013-07-22 19:13:00,
2013-07-22 15:28:00,86.9,69.8,29.74,NNW,337,2.2,-999.0,57,-99.99,,,0.57,Acu-Link.com,2013-07-22 19:28:00,
2013-07-22 16:14:00,88.7,69.9,29.73,West,270,3.2,-999.0,54,-99.99,,,0.57,Acu-Link.com,2013-07-22 20:14:00,
2013-07-22 16:29:00,90.9,69.6,29.72,SW,225,3.2,-999.0,50,-99.99,,,0.57,Acu-Link.com,2013-07-22 20:29:00,
2013-07-22 16:44:00,88.2,70.0,29.72,WSW,247,3.2,-999.0,55,-99.99,,,0.57,Acu-Link.com,2013-07-22 20:44:00,
2013-07-22 16:59:00,87.8,70.1,29.72,NE,45,2.7,-999.0,56,-99.99,,,0.57,Acu-Link.com,2013-07-22 20:59:00,
2013-07-22 17:14:00,90.0,71.1,29.71,ESE,112,3.2,-999.0,54,-99.99,,,0.57,Acu-Link.com,2013-07-22 21:14:00,
2013-07-22 17:29:00,85.1,69.1,29.71,NW,315,3.7,-999.0,59,-99.99,,,0.57,Acu-Link.com,2013-07-22 21:29:00,
2013-07-22 17:44:00,88.0,70.3,29.72,WNW,292,6.8,-999.0,56,-99.99,,,0.57,Acu-Link.com,2013-07-22 21:44:00,
2013-07-22 18:00:00,88.3,70.1,29.72,NE,45,2.7,-999.0,55,-99.99,,,0.57,Acu-Link.com,2013-07-22 22:00:00,
2013-07-22 18:15:00,89.2,69.8,29.72,SW,225,4.2,-999.0,53,-99.99,,,0.57,Acu-Link.com,2013-07-22 22:15:00,
2013-07-22 18:30:00,88.3,70.1,29.72,West,270,3.7,-999.0,55,-99.99,,,0.57,Acu-Link.com,2013-07-22 22:30:00,
2013-07-22 18:45:00,87.1,68.9,29.71,NNE,22,3.2,-999.0,55,-99.99,,,0.57,Acu-Link.com,2013-07-22 22:45:00,
2013-07-22 19:00:00,86.5,69.4,29.71,SSE,157,1.7,-999.0,57,-99.99,,,0.57,Acu-Link.com,2013-07-22 23:00:00,
2013-07-22 19:15:00,86.0,69.0,29.71,SSW,202,3.7,-999.0,57,-99.99,,,0.57,Acu-Link.com,2013-07-22 23:15:00,
2013-07-22 19:30:00,86.4,69.3,29.71,West,270,3.2,-999.0,57,-99.99,,,0.57,Acu-Link.com,2013-07-22 23:30:00,
2013-07-22 19:45:00,84.6,68.7,29.71,West,270,1.1,-999.0,59,-99.99,,,0.57,Acu-Link.com,2013-07-22 23:45:00,
2013-07-22 20:00:00,83.8,68.9,29.71,SW,225,1.7,-999.0,61,-99.99,,,0.57,Acu-Link.com,2013-07-23 00:00:00,
2013-07-22 20:16:00,81.7,68.3,29.72,SW,225,1.1,-999.0,64,-99.99,,,0.57,Acu-Link.com,2013-07-23 00:16:00,
2013-07-22 20:31:00,79.9,67.9,29.73,NNW,337,1.7,-999.0,67,-99.99,,,0.57,Acu-Link.com,2013-07-23 00:31:00,
2013-07-22 20:46:00,78.6,68.0,29.72,SSW,202,1.7,-999.0,70,-99.99,,,0.57,Acu-Link.com,2013-07-23 00:46:00,
2013-07-22 21:01:00,77.4,67.6,29.72,NW,315,0.0,-999.0,72,-99.99,,,0.57,Acu-Link.com,2013-07-23 01:01:00,
2013-07-22 21:16:00,76.1,67.6,29.72,West,270,0.0,-999.0,75,-99.99,,,0.57,Acu-Link.com,2013-07-23 01:16:00,
2013-07-22 21:31:00,74.8,67.5,29.73,West,270,1.1,-999.0,78,-99.99,,,0.57,Acu-Link.com,2013-07-23 01:31:00,
2013-07-22 21:46:00,73.9,66.6,29.73,WSW,247,0.0,-999.0,78,-99.99,,,0.57,Acu-Link.com,2013-07-23 01:46:00,
2013-07-22 22:01:00,73.2,67.0,29.74,SSW,202,0.0,-999.0,81,-99.99,,,0.57,Acu-Link.com,2013-07-23 02:01:00,
2013-07-22 22:16:00,72.5,67.0,29.75,SE,135,0.0,-999.0,83,-99.99,,,0.57,Acu-Link.com,2013-07-23 02:16:00,
2013-07-22 22:31:00,71.6,66.8,29.76,West,270,0.0,-999.0,85,-99.99,,,0.57,Acu-Link.com,2013-07-23 02:31:00,
2013-07-22 22:47:00,71.2,66.8,29.77,West,270,0.0,-999.0,86,-99.99,,,0.57,Acu-Link.com,2013-07-23 02:47:00,
2013-07-22 23:02:00,70.9,66.8,29.77,South,180,0.0,-999.0,87,-99.99,,,0.57,Acu-Link.com,2013-07-23 03:02:00,
2013-07-22 23:17:00,70.3,65.9,29.77,SSW,202,0.0,-999.0,86,-99.99,,,0.57,Acu-Link.com,2013-07-23 03:17:00,
2013-07-22 23:32:00,70.0,66.6,29.76,South,180,0.0,-999.0,89,-99.99,,,0.57,Acu-Link.com,2013-07-23 03:32:00,
2013-07-22 23:47:00,69.4,66.3,29.76,NE,45,0.0,-999.0,90,-99.99,,,0.57,Acu-Link.com,2013-07-23 03:47:00,